sensor_id;sensor_type;location;lat;lon;timestamp;temperature;humidity
64062;DHT22;50308;47.438;-1.528;2022-10-22T00:02:16;18.80;77.70
64062;DHT22;50308;47.438;-1.528;2022-10-22T00:04:50;18.80;77.80
64062;DHT22;50308;47.438;-1.528;2022-10-22T00:07:16;18.80;77.90
64062;DHT22;50308;47.438;-1.528;2022-10-22T00:09:42;18.80;77.90
64062;DHT22;50308;47.438;-1.528;2022-10-22T00:12:09;18.80;77.90
64062;DHT22;50308;47.438;-1.528;2022-10-22T00:14:34;18.80;78.00
64062;DHT22;50308;47.438;-1.528;2022-10-22T00:17:00;18.80;78.20
64062;DHT22;50308;47.438;-1.528;2022-10-22T00:19:26;18.80;78.30
64062;DHT22;50308;47.438;-1.528;2022-10-22T00:21:52;18.80;78.20
64062;DHT22;50308;47.438;-1.528;2022-10-22T00:24:17;18.80;78.40
64062;DHT22;50308;47.438;-1.528;2022-10-22T00:26:43;18.80;78.50
64062;DHT22;50308;47.438;-1.528;2022-10-22T00:29:08;18.80;78.50
64062;DHT22;50308;47.438;-1.528;2022-10-22T00:31:34;18.80;78.70
64062;DHT22;50308;47.438;-1.528;2022-10-22T00:34:00;18.80;78.50
64062;DHT22;50308;47.438;-1.528;2022-10-22T00:36:25;18.80;78.70
64062;DHT22;50308;47.438;-1.528;2022-10-22T00:38:51;18.80;78.60
64062;DHT22;50308;47.438;-1.528;2022-10-22T00:41:16;18.80;78.80
64062;DHT22;50308;47.438;-1.528;2022-10-22T00:43:59;18.80;78.80
64062;DHT22;50308;47.438;-1.528;2022-10-22T00:46:24;18.80;78.80
64062;DHT22;50308;47.438;-1.528;2022-10-22T00:48:50;18.80;78.80
64062;DHT22;50308;47.438;-1.528;2022-10-22T00:51:16;18.80;78.70
64062;DHT22;50308;47.438;-1.528;2022-10-22T00:53:44;18.80;78.30
64062;DHT22;50308;47.438;-1.528;2022-10-22T00:56:10;18.70;78.60
64062;DHT22;50308;47.438;-1.528;2022-10-22T00:58:38;18.70;78.60
64062;DHT22;50308;47.438;-1.528;2022-10-22T01:01:07;18.70;78.60
64062;DHT22;50308;47.438;-1.528;2022-10-22T01:03:33;18.80;78.30
64062;DHT22;50308;47.438;-1.528;2022-10-22T01:06:03;18.80;78.50
64062;DHT22;50308;47.438;-1.528;2022-10-22T01:08:36;18.70;78.20
64062;DHT22;50308;47.438;-1.528;2022-10-22T01:13:51;18.70;78.30
64062;DHT22;50308;47.438;-1.528;2022-10-22T01:16:42;18.70;78.10
64062;DHT22;50308;47.438;-1.528;2022-10-22T01:21:42;18.70;78.50
64062;DHT22;50308;47.438;-1.528;2022-10-22T01:29:35;18.70;78.70
64062;DHT22;50308;47.438;-1.528;2022-10-22T01:32:04;18.70;78.70
64062;DHT22;50308;47.438;-1.528;2022-10-22T01:34:31;18.70;78.70
64062;DHT22;50308;47.438;-1.528;2022-10-22T01:36:58;18.70;78.80
64062;DHT22;50308;47.438;-1.528;2022-10-22T01:39:24;18.70;78.90
64062;DHT22;50308;47.438;-1.528;2022-10-22T01:41:52;18.70;78.80
64062;DHT22;50308;47.438;-1.528;2022-10-22T01:44:28;18.70;78.80
64062;DHT22;50308;47.438;-1.528;2022-10-22T01:46:57;18.70;79.00
64062;DHT22;50308;47.438;-1.528;2022-10-22T01:49:32;18.70;79.00
64062;DHT22;50308;47.438;-1.528;2022-10-22T01:54:44;18.70;79.20
64062;DHT22;50308;47.438;-1.528;2022-10-22T01:57:26;18.70;79.40
64062;DHT22;50308;47.438;-1.528;2022-10-22T02:00:04;18.70;79.30
64062;DHT22;50308;47.438;-1.528;2022-10-22T02:08:01;18.70;79.20
64062;DHT22;50308;47.438;-1.528;2022-10-22T02:10:28;18.70;79.30
64062;DHT22;50308;47.438;-1.528;2022-10-22T02:12:54;18.70;79.00
64062;DHT22;50308;47.438;-1.528;2022-10-22T02:15:21;18.70;79.10
64062;DHT22;50308;47.438;-1.528;2022-10-22T02:17:48;18.70;79.10
64062;DHT22;50308;47.438;-1.528;2022-10-22T02:20:17;18.60;78.90
64062;DHT22;50308;47.438;-1.528;2022-10-22T02:22:44;18.60;78.90
64062;DHT22;50308;47.438;-1.528;2022-10-22T02:25:09;18.60;78.90
64062;DHT22;50308;47.438;-1.528;2022-10-22T02:27:53;18.60;78.70
64062;DHT22;50308;47.438;-1.528;2022-10-22T02:30:23;18.60;78.70
64062;DHT22;50308;47.438;-1.528;2022-10-22T02:35:14;18.50;78.70
64062;DHT22;50308;47.438;-1.528;2022-10-22T02:37:41;18.50;78.70
64062;DHT22;50308;47.438;-1.528;2022-10-22T02:40:07;18.50;78.60
64062;DHT22;50308;47.438;-1.528;2022-10-22T02:42:33;18.40;78.60
64062;DHT22;50308;47.438;-1.528;2022-10-22T02:44:59;18.40;78.90
64062;DHT22;50308;47.438;-1.528;2022-10-22T02:47:25;18.40;78.90
64062;DHT22;50308;47.438;-1.528;2022-10-22T02:49:50;18.30;78.70
64062;DHT22;50308;47.438;-1.528;2022-10-22T02:52:16;18.30;78.80
64062;DHT22;50308;47.438;-1.528;2022-10-22T02:54:41;18.20;78.80
64062;DHT22;50308;47.438;-1.528;2022-10-22T02:57:07;18.20;78.90
64062;DHT22;50308;47.438;-1.528;2022-10-22T02:59:33;18.20;79.00
64062;DHT22;50308;47.438;-1.528;2022-10-22T03:01:58;18.20;78.80
64062;DHT22;50308;47.438;-1.528;2022-10-22T03:04:24;18.10;78.60
64062;DHT22;50308;47.438;-1.528;2022-10-22T03:06:49;18.10;78.90
64062;DHT22;50308;47.438;-1.528;2022-10-22T03:09:15;18.00;78.80
64062;DHT22;50308;47.438;-1.528;2022-10-22T03:11:41;18.00;78.90
64062;DHT22;50308;47.438;-1.528;2022-10-22T03:14:07;18.00;78.70
64062;DHT22;50308;47.438;-1.528;2022-10-22T03:16:32;18.00;78.80
64062;DHT22;50308;47.438;-1.528;2022-10-22T03:18:58;17.90;78.60
64062;DHT22;50308;47.438;-1.528;2022-10-22T03:23:57;17.90;78.80
64062;DHT22;50308;47.438;-1.528;2022-10-22T03:26:23;17.90;78.70
64062;DHT22;50308;47.438;-1.528;2022-10-22T03:28:49;17.90;78.60
64062;DHT22;50308;47.438;-1.528;2022-10-22T03:31:15;17.90;78.60
64062;DHT22;50308;47.438;-1.528;2022-10-22T03:33:44;17.80;78.50
64062;DHT22;50308;47.438;-1.528;2022-10-22T03:36:09;17.70;78.30
64062;DHT22;50308;47.438;-1.528;2022-10-22T03:38:36;17.70;78.50
64062;DHT22;50308;47.438;-1.528;2022-10-22T03:41:02;17.60;78.40
64062;DHT22;50308;47.438;-1.528;2022-10-22T03:43:28;17.60;78.20
64062;DHT22;50308;47.438;-1.528;2022-10-22T03:45:53;17.60;78.30
64062;DHT22;50308;47.438;-1.528;2022-10-22T03:48:19;17.60;78.20
64062;DHT22;50308;47.438;-1.528;2022-10-22T03:50:44;17.60;78.10
64062;DHT22;50308;47.438;-1.528;2022-10-22T03:53:10;17.60;78.20
64062;DHT22;50308;47.438;-1.528;2022-10-22T03:55:36;17.50;77.90
64062;DHT22;50308;47.438;-1.528;2022-10-22T03:58:03;17.50;77.90
64062;DHT22;50308;47.438;-1.528;2022-10-22T04:00:29;17.50;78.00
64062;DHT22;50308;47.438;-1.528;2022-10-22T04:02:55;17.50;78.10
64062;DHT22;50308;47.438;-1.528;2022-10-22T04:05:22;17.40;78.10
64062;DHT22;50308;47.438;-1.528;2022-10-22T04:07:47;17.40;78.00
64062;DHT22;50308;47.438;-1.528;2022-10-22T04:10:13;17.50;77.80
64062;DHT22;50308;47.438;-1.528;2022-10-22T04:12:38;17.40;78.00
64062;DHT22;50308;47.438;-1.528;2022-10-22T04:15:04;17.40;78.10
64062;DHT22;50308;47.438;-1.528;2022-10-22T04:17:34;17.40;77.90
64062;DHT22;50308;47.438;-1.528;2022-10-22T04:19:59;17.30;78.00
64062;DHT22;50308;47.438;-1.528;2022-10-22T04:22:25;17.40;77.80
64062;DHT22;50308;47.438;-1.528;2022-10-22T04:24:51;17.40;77.70
64062;DHT22;50308;47.438;-1.528;2022-10-22T04:27:16;17.30;77.90
64062;DHT22;50308;47.438;-1.528;2022-10-22T04:29:42;17.30;78.00
64062;DHT22;50308;47.438;-1.528;2022-10-22T04:32:07;17.20;78.30
64062;DHT22;50308;47.438;-1.528;2022-10-22T04:34:33;17.30;78.30
64062;DHT22;50308;47.438;-1.528;2022-10-22T04:36:58;17.30;77.90
64062;DHT22;50308;47.438;-1.528;2022-10-22T04:39:24;17.30;78.20
64062;DHT22;50308;47.438;-1.528;2022-10-22T04:41:49;17.20;78.20
64062;DHT22;50308;47.438;-1.528;2022-10-22T04:44:15;17.20;78.40
64062;DHT22;50308;47.438;-1.528;2022-10-22T04:46:44;17.20;78.40
64062;DHT22;50308;47.438;-1.528;2022-10-22T04:49:13;17.20;78.30
64062;DHT22;50308;47.438;-1.528;2022-10-22T04:51:41;17.20;78.30
64062;DHT22;50308;47.438;-1.528;2022-10-22T04:54:06;17.10;78.50
64062;DHT22;50308;47.438;-1.528;2022-10-22T04:56:32;17.10;78.30
64062;DHT22;50308;47.438;-1.528;2022-10-22T04:58:59;17.10;78.20
64062;DHT22;50308;47.438;-1.528;2022-10-22T05:01:26;17.10;78.00
64062;DHT22;50308;47.438;-1.528;2022-10-22T05:03:52;17.20;77.50
64062;DHT22;50308;47.438;-1.528;2022-10-22T05:06:18;17.20;78.10
64062;DHT22;50308;47.438;-1.528;2022-10-22T05:08:45;17.20;77.80
64062;DHT22;50308;47.438;-1.528;2022-10-22T05:11:12;17.20;78.10
64062;DHT22;50308;47.438;-1.528;2022-10-22T05:13:37;17.20;77.60
64062;DHT22;50308;47.438;-1.528;2022-10-22T05:16:03;17.20;77.60
64062;DHT22;50308;47.438;-1.528;2022-10-22T05:18:29;17.10;77.70
64062;DHT22;50308;47.438;-1.528;2022-10-22T05:20:54;17.10;78.00
64062;DHT22;50308;47.438;-1.528;2022-10-22T05:23:20;17.20;77.70
64062;DHT22;50308;47.438;-1.528;2022-10-22T05:25:45;17.10;78.10
64062;DHT22;50308;47.438;-1.528;2022-10-22T05:28:11;17.10;78.10
64062;DHT22;50308;47.438;-1.528;2022-10-22T05:30:36;17.10;78.00
64062;DHT22;50308;47.438;-1.528;2022-10-22T05:33:02;17.10;78.10
64062;DHT22;50308;47.438;-1.528;2022-10-22T05:35:27;17.10;78.00
64062;DHT22;50308;47.438;-1.528;2022-10-22T05:37:53;17.10;77.90
64062;DHT22;50308;47.438;-1.528;2022-10-22T05:40:18;17.10;77.90
64062;DHT22;50308;47.438;-1.528;2022-10-22T05:42:44;17.10;77.70
64062;DHT22;50308;47.438;-1.528;2022-10-22T05:45:10;17.00;78.10
64062;DHT22;50308;47.438;-1.528;2022-10-22T05:47:36;17.10;78.00
64062;DHT22;50308;47.438;-1.528;2022-10-22T05:50:01;17.00;78.10
64062;DHT22;50308;47.438;-1.528;2022-10-22T05:52:27;17.00;78.10
64062;DHT22;50308;47.438;-1.528;2022-10-22T05:54:52;17.00;78.10
64062;DHT22;50308;47.438;-1.528;2022-10-22T05:57:18;17.10;78.20
64062;DHT22;50308;47.438;-1.528;2022-10-22T05:59:44;17.10;77.90
64062;DHT22;50308;47.438;-1.528;2022-10-22T06:02:11;17.10;77.90
64062;DHT22;50308;47.438;-1.528;2022-10-22T06:04:37;17.00;77.60
64062;DHT22;50308;47.438;-1.528;2022-10-22T06:07:02;17.00;78.80
64062;DHT22;50308;47.438;-1.528;2022-10-22T06:09:29;17.00;77.60
64062;DHT22;50308;47.438;-1.528;2022-10-22T06:11:55;17.00;77.70
64062;DHT22;50308;47.438;-1.528;2022-10-22T06:14:21;17.00;77.80
64062;DHT22;50308;47.438;-1.528;2022-10-22T06:16:47;17.00;77.90
64062;DHT22;50308;47.438;-1.528;2022-10-22T06:19:14;17.00;77.90
64062;DHT22;50308;47.438;-1.528;2022-10-22T06:21:40;16.90;77.70
64062;DHT22;50308;47.438;-1.528;2022-10-22T06:24:05;17.00;77.60
64062;DHT22;50308;47.438;-1.528;2022-10-22T06:26:31;16.90;77.80
64062;DHT22;50308;47.438;-1.528;2022-10-22T06:28:57;16.90;77.80
64062;DHT22;50308;47.438;-1.528;2022-10-22T06:31:23;16.90;77.70
64062;DHT22;50308;47.438;-1.528;2022-10-22T06:33:49;16.90;77.50
64062;DHT22;50308;47.438;-1.528;2022-10-22T06:36:15;17.00;77.60
64062;DHT22;50308;47.438;-1.528;2022-10-22T06:38:41;16.90;77.70
64062;DHT22;50308;47.438;-1.528;2022-10-22T06:41:14;16.90;77.80
64062;DHT22;50308;47.438;-1.528;2022-10-22T06:43:40;16.90;77.60
64062;DHT22;50308;47.438;-1.528;2022-10-22T06:46:07;16.90;77.70
64062;DHT22;50308;47.438;-1.528;2022-10-22T06:48:34;16.90;77.60
64062;DHT22;50308;47.438;-1.528;2022-10-22T06:51:02;16.90;77.60
64062;DHT22;50308;47.438;-1.528;2022-10-22T06:53:29;16.80;77.60
64062;DHT22;50308;47.438;-1.528;2022-10-22T06:55:54;16.80;77.60
64062;DHT22;50308;47.438;-1.528;2022-10-22T06:58:20;16.80;77.70
64062;DHT22;50308;47.438;-1.528;2022-10-22T07:00:45;16.90;77.60
64062;DHT22;50308;47.438;-1.528;2022-10-22T07:03:11;16.90;77.70
64062;DHT22;50308;47.438;-1.528;2022-10-22T07:05:38;16.90;77.80
64062;DHT22;50308;47.438;-1.528;2022-10-22T07:08:03;16.90;78.10
64062;DHT22;50308;47.438;-1.528;2022-10-22T07:10:29;16.90;78.10
64062;DHT22;50308;47.438;-1.528;2022-10-22T07:12:55;17.00;78.10
64062;DHT22;50308;47.438;-1.528;2022-10-22T07:15:20;17.00;78.40
64062;DHT22;50308;47.438;-1.528;2022-10-22T07:17:46;17.00;78.30
64062;DHT22;50308;47.438;-1.528;2022-10-22T07:20:11;17.00;78.60
64062;DHT22;50308;47.438;-1.528;2022-10-22T07:22:37;17.00;78.70
64062;DHT22;50308;47.438;-1.528;2022-10-22T07:25:03;17.00;78.90
64062;DHT22;50308;47.438;-1.528;2022-10-22T07:27:28;17.00;79.10
64062;DHT22;50308;47.438;-1.528;2022-10-22T07:29:54;17.00;79.00
64062;DHT22;50308;47.438;-1.528;2022-10-22T07:32:20;17.10;78.90
64062;DHT22;50308;47.438;-1.528;2022-10-22T07:34:45;17.10;79.00
64062;DHT22;50308;47.438;-1.528;2022-10-22T07:37:11;17.20;79.20
64062;DHT22;50308;47.438;-1.528;2022-10-22T07:39:36;17.20;79.20
64062;DHT22;50308;47.438;-1.528;2022-10-22T07:42:02;17.20;79.50
64062;DHT22;50308;47.438;-1.528;2022-10-22T07:44:27;17.20;79.50
64062;DHT22;50308;47.438;-1.528;2022-10-22T07:46:53;17.20;79.70
64062;DHT22;50308;47.438;-1.528;2022-10-22T07:49:18;17.20;80.00
64062;DHT22;50308;47.438;-1.528;2022-10-22T07:51:44;17.30;80.10
64062;DHT22;50308;47.438;-1.528;2022-10-22T07:54:10;17.40;80.00
64062;DHT22;50308;47.438;-1.528;2022-10-22T07:56:35;17.60;79.80
64062;DHT22;50308;47.438;-1.528;2022-10-22T07:59:01;17.70;79.80
64062;DHT22;50308;47.438;-1.528;2022-10-22T08:01:26;17.70;79.80
64062;DHT22;50308;47.438;-1.528;2022-10-22T08:03:52;17.80;79.90
64062;DHT22;50308;47.438;-1.528;2022-10-22T08:06:18;17.80;79.90
64062;DHT22;50308;47.438;-1.528;2022-10-22T08:08:44;17.80;79.90
64062;DHT22;50308;47.438;-1.528;2022-10-22T08:11:10;17.90;80.80
64062;DHT22;50308;47.438;-1.528;2022-10-22T08:13:36;17.90;80.70
64062;DHT22;50308;47.438;-1.528;2022-10-22T08:16:01;17.90;80.70
64062;DHT22;50308;47.438;-1.528;2022-10-22T08:18:27;18.00;80.90
64062;DHT22;50308;47.438;-1.528;2022-10-22T08:20:53;18.00;80.80
64062;DHT22;50308;47.438;-1.528;2022-10-22T08:23:18;18.00;80.00
64062;DHT22;50308;47.438;-1.528;2022-10-22T08:25:44;18.10;80.10
64062;DHT22;50308;47.438;-1.528;2022-10-22T08:28:10;18.10;81.00
64062;DHT22;50308;47.438;-1.528;2022-10-22T08:30:35;18.20;80.10
64062;DHT22;50308;47.438;-1.528;2022-10-22T08:33:03;18.20;80.30
64062;DHT22;50308;47.438;-1.528;2022-10-22T08:35:29;18.20;80.60
64062;DHT22;50308;47.438;-1.528;2022-10-22T08:37:54;18.20;80.10
64062;DHT22;50308;47.438;-1.528;2022-10-22T08:40:22;18.30;81.00
64062;DHT22;50308;47.438;-1.528;2022-10-22T08:45:42;18.30;79.50
64062;DHT22;50308;47.438;-1.528;2022-10-22T08:50:42;18.30;80.80
64062;DHT22;50308;47.438;-1.528;2022-10-22T08:53:16;18.40;81.30
64062;DHT22;50308;47.438;-1.528;2022-10-22T08:55:42;18.40;80.20
64062;DHT22;50308;47.438;-1.528;2022-10-22T09:00:43;18.40;78.60
64062;DHT22;50308;47.438;-1.528;2022-10-22T09:05:58;18.50;78.30
64062;DHT22;50308;47.438;-1.528;2022-10-22T09:08:25;18.40;78.30
64062;DHT22;50308;47.438;-1.528;2022-10-22T09:10:57;18.50;78.20
64062;DHT22;50308;47.438;-1.528;2022-10-22T09:13:25;18.40;78.10
64062;DHT22;50308;47.438;-1.528;2022-10-22T09:15:55;18.50;78.20
64062;DHT22;50308;47.438;-1.528;2022-10-22T09:18:35;18.50;78.00
64062;DHT22;50308;47.438;-1.528;2022-10-22T09:21:09;18.50;78.00
64062;DHT22;50308;47.438;-1.528;2022-10-22T09:23:48;18.50;78.10
64062;DHT22;50308;47.438;-1.528;2022-10-22T09:26:15;18.50;78.30
64062;DHT22;50308;47.438;-1.528;2022-10-22T09:28:41;18.50;78.10
64062;DHT22;50308;47.438;-1.528;2022-10-22T09:31:15;18.60;78.10
64062;DHT22;50308;47.438;-1.528;2022-10-22T09:33:42;18.50;77.90
64062;DHT22;50308;47.438;-1.528;2022-10-22T09:36:10;18.60;78.60
64062;DHT22;50308;47.438;-1.528;2022-10-22T09:38:38;18.60;78.10
64062;DHT22;50308;47.438;-1.528;2022-10-22T09:41:04;18.60;78.30
64062;DHT22;50308;47.438;-1.528;2022-10-22T09:43:30;18.60;78.40
64062;DHT22;50308;47.438;-1.528;2022-10-22T09:45:57;18.60;78.00
64062;DHT22;50308;47.438;-1.528;2022-10-22T09:48:28;18.60;77.90
64062;DHT22;50308;47.438;-1.528;2022-10-22T09:53:43;18.60;78.00
64062;DHT22;50308;47.438;-1.528;2022-10-22T09:56:16;18.60;78.30
64062;DHT22;50308;47.438;-1.528;2022-10-22T09:58:43;18.70;78.00
64062;DHT22;50308;47.438;-1.528;2022-10-22T10:01:14;18.70;78.00
64062;DHT22;50308;47.438;-1.528;2022-10-22T10:03:40;18.60;78.00
64062;DHT22;50308;47.438;-1.528;2022-10-22T10:06:05;18.70;78.00
64062;DHT22;50308;47.438;-1.528;2022-10-22T10:08:31;18.70;78.00
64062;DHT22;50308;47.438;-1.528;2022-10-22T10:10:58;18.70;78.50
64062;DHT22;50308;47.438;-1.528;2022-10-22T10:21:25;18.70;78.00
64062;DHT22;50308;47.438;-1.528;2022-10-22T10:24:08;18.70;78.10
64062;DHT22;50308;47.438;-1.528;2022-10-22T10:26:40;18.80;78.20
64062;DHT22;50308;47.438;-1.528;2022-10-22T10:36:53;18.80;78.20
64062;DHT22;50308;47.438;-1.528;2022-10-22T10:44:32;18.80;78.10
64062;DHT22;50308;47.438;-1.528;2022-10-22T10:49:46;18.80;78.10
64062;DHT22;50308;47.438;-1.528;2022-10-22T10:57:24;18.80;78.10
64062;DHT22;50308;47.438;-1.528;2022-10-22T11:02:54;18.90;78.10
64062;DHT22;50308;47.438;-1.528;2022-10-22T11:07:47;18.90;78.20
64062;DHT22;50308;47.438;-1.528;2022-10-22T11:13:02;18.90;78.10
64062;DHT22;50308;47.438;-1.528;2022-10-22T11:15:31;18.90;78.20
64062;DHT22;50308;47.438;-1.528;2022-10-22T11:18:02;18.80;78.10
64062;DHT22;50308;47.438;-1.528;2022-10-22T11:23:24;18.90;78.10
64062;DHT22;50308;47.438;-1.528;2022-10-22T11:25:52;18.90;78.20
64062;DHT22;50308;47.438;-1.528;2022-10-22T11:28:37;18.90;78.10
64062;DHT22;50308;47.438;-1.528;2022-10-22T11:31:14;18.90;78.20
64062;DHT22;50308;47.438;-1.528;2022-10-22T11:36:26;18.90;78.10
64062;DHT22;50308;47.438;-1.528;2022-10-22T11:38:53;18.90;78.30
64062;DHT22;50308;47.438;-1.528;2022-10-22T11:41:23;19.00;78.10
64062;DHT22;50308;47.438;-1.528;2022-10-22T11:51:39;18.90;78.20
64062;DHT22;50308;47.438;-1.528;2022-10-22T11:56:56;18.90;78.20
64062;DHT22;50308;47.438;-1.528;2022-10-22T11:59:37;18.90;78.10
64062;DHT22;50308;47.438;-1.528;2022-10-22T12:02:19;18.90;78.10
64062;DHT22;50308;47.438;-1.528;2022-10-22T12:04:47;18.90;78.20
64062;DHT22;50308;47.438;-1.528;2022-10-22T12:07:32;18.90;78.30
64062;DHT22;50308;47.438;-1.528;2022-10-22T12:09:58;18.90;78.20
64062;DHT22;50308;47.438;-1.528;2022-10-22T12:12:24;18.90;78.20
64062;DHT22;50308;47.438;-1.528;2022-10-22T12:14:56;18.90;78.20
64062;DHT22;50308;47.438;-1.528;2022-10-22T12:17:23;18.90;78.20
64062;DHT22;50308;47.438;-1.528;2022-10-22T12:20:00;19.00;78.30
64062;DHT22;50308;47.438;-1.528;2022-10-22T12:22:27;18.90;78.20
64062;DHT22;50308;47.438;-1.528;2022-10-22T12:24:54;19.00;78.20
64062;DHT22;50308;47.438;-1.528;2022-10-22T12:27:22;19.00;78.10
64062;DHT22;50308;47.438;-1.528;2022-10-22T12:29:52;19.00;78.30
64062;DHT22;50308;47.438;-1.528;2022-10-22T12:32:18;19.00;78.20
64062;DHT22;50308;47.438;-1.528;2022-10-22T12:34:47;19.00;78.30
64062;DHT22;50308;47.438;-1.528;2022-10-22T12:37:13;19.00;78.30
64062;DHT22;50308;47.438;-1.528;2022-10-22T12:39:39;19.00;78.30
64062;DHT22;50308;47.438;-1.528;2022-10-22T12:42:06;19.00;78.30
64062;DHT22;50308;47.438;-1.528;2022-10-22T12:44:32;19.00;78.20
64062;DHT22;50308;47.438;-1.528;2022-10-22T12:46:57;19.00;78.30
64062;DHT22;50308;47.438;-1.528;2022-10-22T12:49:34;19.00;78.30
64062;DHT22;50308;47.438;-1.528;2022-10-22T12:52:04;19.00;78.30
64062;DHT22;50308;47.438;-1.528;2022-10-22T12:54:31;19.00;78.20
64062;DHT22;50308;47.438;-1.528;2022-10-22T12:56:57;19.00;78.20
64062;DHT22;50308;47.438;-1.528;2022-10-22T12:59:28;19.00;78.10
64062;DHT22;50308;47.438;-1.528;2022-10-22T13:01:57;19.00;78.20
64062;DHT22;50308;47.438;-1.528;2022-10-22T13:09:43;19.00;78.30
64062;DHT22;50308;47.438;-1.528;2022-10-22T13:12:09;19.00;78.20
64062;DHT22;50308;47.438;-1.528;2022-10-22T13:14:40;19.00;78.20
64062;DHT22;50308;47.438;-1.528;2022-10-22T13:17:11;19.00;78.10
64062;DHT22;50308;47.438;-1.528;2022-10-22T13:19:39;19.00;78.10
64062;DHT22;50308;47.438;-1.528;2022-10-22T13:22:51;19.00;78.10
64062;DHT22;50308;47.438;-1.528;2022-10-22T13:24:51;19.00;78.10
64062;DHT22;50308;47.438;-1.528;2022-10-22T13:27:16;19.00;78.20
64062;DHT22;50308;47.438;-1.528;2022-10-22T13:29:42;19.00;78.20
64062;DHT22;50308;47.438;-1.528;2022-10-22T13:32:17;19.00;78.30
64062;DHT22;50308;47.438;-1.528;2022-10-22T13:34:46;19.10;78.20
64062;DHT22;50308;47.438;-1.528;2022-10-22T13:37:12;19.00;78.30
64062;DHT22;50308;47.438;-1.528;2022-10-22T13:39:37;19.00;78.30
64062;DHT22;50308;47.438;-1.528;2022-10-22T13:42:09;19.00;78.30
64062;DHT22;50308;47.438;-1.528;2022-10-22T13:44:35;19.10;78.30
64062;DHT22;50308;47.438;-1.528;2022-10-22T13:47:01;19.10;78.30
64062;DHT22;50308;47.438;-1.528;2022-10-22T13:49:26;19.10;78.30
64062;DHT22;50308;47.438;-1.528;2022-10-22T13:51:52;19.00;78.40
64062;DHT22;50308;47.438;-1.528;2022-10-22T13:54:18;19.00;78.30
64062;DHT22;50308;47.438;-1.528;2022-10-22T13:56:45;19.00;78.30
64062;DHT22;50308;47.438;-1.528;2022-10-22T13:59:11;19.00;78.30
64062;DHT22;50308;47.438;-1.528;2022-10-22T14:01:36;19.10;78.40
64062;DHT22;50308;47.438;-1.528;2022-10-22T14:04:03;19.10;78.40
64062;DHT22;50308;47.438;-1.528;2022-10-22T14:06:29;19.10;78.40
64062;DHT22;50308;47.438;-1.528;2022-10-22T14:08:56;19.10;78.60
64062;DHT22;50308;47.438;-1.528;2022-10-22T14:11:23;19.10;78.40
64062;DHT22;50308;47.438;-1.528;2022-10-22T14:13:48;19.10;78.40
64062;DHT22;50308;47.438;-1.528;2022-10-22T14:16:18;19.10;78.40
64062;DHT22;50308;47.438;-1.528;2022-10-22T14:18:44;19.10;78.40
64062;DHT22;50308;47.438;-1.528;2022-10-22T14:21:10;19.10;78.50
64062;DHT22;50308;47.438;-1.528;2022-10-22T14:23:37;19.10;78.40
64062;DHT22;50308;47.438;-1.528;2022-10-22T14:26:03;19.10;78.30
64062;DHT22;50308;47.438;-1.528;2022-10-22T14:28:31;19.10;78.30
64062;DHT22;50308;47.438;-1.528;2022-10-22T14:30:57;19.10;78.40
64062;DHT22;50308;47.438;-1.528;2022-10-22T14:33:24;19.10;78.40
64062;DHT22;50308;47.438;-1.528;2022-10-22T14:35:50;19.10;78.40
64062;DHT22;50308;47.438;-1.528;2022-10-22T14:38:16;19.10;78.40
64062;DHT22;50308;47.438;-1.528;2022-10-22T14:40:42;19.10;78.40
64062;DHT22;50308;47.438;-1.528;2022-10-22T14:43:27;19.10;78.40
64062;DHT22;50308;47.438;-1.528;2022-10-22T14:45:53;19.10;78.50
64062;DHT22;50308;47.438;-1.528;2022-10-22T14:48:19;19.10;78.40
64062;DHT22;50308;47.438;-1.528;2022-10-22T14:50:44;19.10;78.40
64062;DHT22;50308;47.438;-1.528;2022-10-22T14:53:10;19.10;78.50
64062;DHT22;50308;47.438;-1.528;2022-10-22T14:55:36;19.10;78.40
64062;DHT22;50308;47.438;-1.528;2022-10-22T14:58:02;19.10;78.40
64062;DHT22;50308;47.438;-1.528;2022-10-22T15:00:28;19.10;78.40
64062;DHT22;50308;47.438;-1.528;2022-10-22T15:02:53;19.10;78.50
64062;DHT22;50308;47.438;-1.528;2022-10-22T15:05:21;19.10;78.50
64062;DHT22;50308;47.438;-1.528;2022-10-22T15:07:47;19.10;78.50
64062;DHT22;50308;47.438;-1.528;2022-10-22T15:10:13;19.10;78.40
64062;DHT22;50308;47.438;-1.528;2022-10-22T15:12:38;19.10;78.50
64062;DHT22;50308;47.438;-1.528;2022-10-22T15:15:04;19.10;78.40
64062;DHT22;50308;47.438;-1.528;2022-10-22T15:17:30;19.10;78.40
64062;DHT22;50308;47.438;-1.528;2022-10-22T15:19:55;19.10;78.50
64062;DHT22;50308;47.438;-1.528;2022-10-22T15:22:23;19.10;78.60
64062;DHT22;50308;47.438;-1.528;2022-10-22T15:24:49;19.10;78.60
64062;DHT22;50308;47.438;-1.528;2022-10-22T15:27:16;19.10;78.50
64062;DHT22;50308;47.438;-1.528;2022-10-22T15:29:42;19.10;78.50
64062;DHT22;50308;47.438;-1.528;2022-10-22T15:32:08;19.10;78.50
64062;DHT22;50308;47.438;-1.528;2022-10-22T15:34:37;19.20;78.50
64062;DHT22;50308;47.438;-1.528;2022-10-22T15:37:04;19.20;78.40
64062;DHT22;50308;47.438;-1.528;2022-10-22T15:39:30;19.20;78.40
64062;DHT22;50308;47.438;-1.528;2022-10-22T15:41:56;19.20;78.40
64062;DHT22;50308;47.438;-1.528;2022-10-22T15:44:22;19.20;78.30
64062;DHT22;50308;47.438;-1.528;2022-10-22T15:46:48;19.20;78.30
64062;DHT22;50308;47.438;-1.528;2022-10-22T15:49:15;19.20;78.30
64062;DHT22;50308;47.438;-1.528;2022-10-22T15:51:40;19.20;78.20
64062;DHT22;50308;47.438;-1.528;2022-10-22T15:54:09;19.20;78.30
64062;DHT22;50308;47.438;-1.528;2022-10-22T15:56:36;19.20;78.30
64062;DHT22;50308;47.438;-1.528;2022-10-22T15:59:02;19.20;78.30
64062;DHT22;50308;47.438;-1.528;2022-10-22T16:01:31;19.20;78.20
64062;DHT22;50308;47.438;-1.528;2022-10-22T16:03:58;19.20;78.30
64062;DHT22;50308;47.438;-1.528;2022-10-22T16:06:33;19.20;78.30
64062;DHT22;50308;47.438;-1.528;2022-10-22T16:09:00;19.20;78.30
64062;DHT22;50308;47.438;-1.528;2022-10-22T16:11:26;19.20;78.30
64062;DHT22;50308;47.438;-1.528;2022-10-22T16:13:53;19.20;78.20
64062;DHT22;50308;47.438;-1.528;2022-10-22T16:16:20;19.20;78.30
64062;DHT22;50308;47.438;-1.528;2022-10-22T16:18:46;19.20;78.30
64062;DHT22;50308;47.438;-1.528;2022-10-22T16:21:12;19.20;78.30
64062;DHT22;50308;47.438;-1.528;2022-10-22T16:23:39;19.20;78.30
64062;DHT22;50308;47.438;-1.528;2022-10-22T16:26:04;19.20;78.30
64062;DHT22;50308;47.438;-1.528;2022-10-22T16:28:30;19.20;78.30
64062;DHT22;50308;47.438;-1.528;2022-10-22T16:30:55;19.20;78.30
64062;DHT22;50308;47.438;-1.528;2022-10-22T16:33:25;19.20;78.20
64062;DHT22;50308;47.438;-1.528;2022-10-22T16:35:50;19.20;78.20
64062;DHT22;50308;47.438;-1.528;2022-10-22T16:38:16;19.20;78.20
64062;DHT22;50308;47.438;-1.528;2022-10-22T16:40:43;19.20;78.30
64062;DHT22;50308;47.438;-1.528;2022-10-22T16:43:08;19.20;78.20
64062;DHT22;50308;47.438;-1.528;2022-10-22T16:45:34;19.20;78.20
64062;DHT22;50308;47.438;-1.528;2022-10-22T16:47:59;19.20;78.20
64062;DHT22;50308;47.438;-1.528;2022-10-22T16:50:25;19.20;78.20
64062;DHT22;50308;47.438;-1.528;2022-10-22T16:52:51;19.20;78.20